sensor_id;sensor_type;location;lat;lon;timestamp;P1;durP1;ratioP1;P2;durP2;ratioP2
23588;SDS011;11972;48.078;11.876;2022-09-28T00:03:42;0.63;;;0.20;;
23588;SDS011;11972;48.078;11.876;2022-09-28T00:07:43;0.20;;;0.20;;
23588;SDS011;11972;48.078;11.876;2022-09-28T00:11:43;2.00;;;0.20;;
23588;SDS011;11972;48.078;11.876;2022-09-28T00:15:44;1.75;;;0.20;;
23588;SDS011;11972;48.078;11.876;2022-09-28T00:19:45;0.70;;;0.20;;
23588;SDS011;11972;48.078;11.876;2022-09-28T00:23:45;0.80;;;0.28;;
23588;SDS011;11972;48.078;11.876;2022-09-28T00:28:04;0.30;;;0.20;;
23588;SDS011;11972;48.078;11.876;2022-09-28T00:32:10;0.20;;;0.15;;
23588;SDS011;11972;48.078;11.876;2022-09-28T00:36:12;1.98;;;0.20;;
23588;SDS011;11972;48.078;11.876;2022-09-28T00:40:12;2.17;;;0.17;;
23588;SDS011;11972;48.078;11.876;2022-09-28T00:48:25;0.35;;;0.10;;
23588;SDS011;11972;48.078;11.876;2022-09-28T00:52:30;1.10;;;0.20;;
23588;SDS011;11972;48.078;11.876;2022-09-28T00:56:35;0.50;;;0.20;;
23588;SDS011;11972;48.078;11.876;2022-09-28T01:00:38;0.63;;;0.10;;
23588;SDS011;11972;48.078;11.876;2022-09-28T01:04:40;0.35;;;0.20;;
23588;SDS011;11972;48.078;11.876;2022-09-28T01:08:40;0.52;;;0.10;;
23588;SDS011;11972;48.078;11.876;2022-09-28T01:12:43;0.20;;;0.10;;
23588;SDS011;11972;48.078;11.876;2022-09-28T01:21:13;0.88;;;0.20;;
23588;SDS011;11972;48.078;11.876;2022-09-28T01:25:32;0.28;;;0.10;;
23588;SDS011;11972;48.078;11.876;2022-09-28T01:29:42;0.22;;;0.20;;
23588;SDS011;11972;48.078;11.876;2022-09-28T01:33:45;0.50;;;0.10;;
23588;SDS011;11972;48.078;11.876;2022-09-28T01:42:19;0.17;;;0.13;;
23588;SDS011;11972;48.078;11.876;2022-09-28T01:46:24;1.00;;;0.20;;
23588;SDS011;11972;48.078;11.876;2022-09-28T01:50:28;1.05;;;0.30;;
23588;SDS011;11972;48.078;11.876;2022-09-28T01:54:39;0.75;;;0.10;;
23588;SDS011;11972;48.078;11.876;2022-09-28T01:59:09;0.63;;;0.10;;
23588;SDS011;11972;48.078;11.876;2022-09-28T02:03:15;0.38;;;0.10;;
23588;SDS011;11972;48.078;11.876;2022-09-28T02:07:22;0.55;;;0.10;;
23588;SDS011;11972;48.078;11.876;2022-09-28T02:11:27;0.40;;;0.30;;
23588;SDS011;11972;48.078;11.876;2022-09-28T02:15:32;0.32;;;0.17;;
23588;SDS011;11972;48.078;11.876;2022-09-28T02:19:38;1.45;;;0.20;;
23588;SDS011;11972;48.078;11.876;2022-09-28T02:23:40;0.10;;;0.10;;
23588;SDS011;11972;48.078;11.876;2022-09-28T02:32:00;0.77;;;0.30;;
23588;SDS011;11972;48.078;11.876;2022-09-28T02:36:01;0.22;;;0.22;;
23588;SDS011;11972;48.078;11.876;2022-09-28T02:40:07;0.40;;;0.10;;
23588;SDS011;11972;48.078;11.876;2022-09-28T02:44:17;1.70;;;0.20;;
23588;SDS011;11972;48.078;11.876;2022-09-28T03:01:44;0.50;;;0.20;;
23588;SDS011;11972;48.078;11.876;2022-09-28T03:06:10;0.20;;;0.20;;
23588;SDS011;11972;48.078;11.876;2022-09-28T03:10:32;0.82;;;0.28;;
23588;SDS011;11972;48.078;11.876;2022-09-28T03:14:37;1.60;;;0.10;;
23588;SDS011;11972;48.078;11.876;2022-09-28T03:18:38;0.10;;;0.10;;
23588;SDS011;11972;48.078;11.876;2022-09-28T03:22:38;0.25;;;0.10;;
23588;SDS011;11972;48.078;11.876;2022-09-28T03:26:39;0.88;;;0.20;;
23588;SDS011;11972;48.078;11.876;2022-09-28T03:30:39;0.45;;;0.20;;
23588;SDS011;11972;48.078;11.876;2022-09-28T03:34:41;0.38;;;0.30;;
23588;SDS011;11972;48.078;11.876;2022-09-28T03:38:41;0.38;;;0.20;;
23588;SDS011;11972;48.078;11.876;2022-09-28T03:42:41;0.63;;;0.40;;
23588;SDS011;11972;48.078;11.876;2022-09-28T03:46:42;0.50;;;0.43;;
23588;SDS011;11972;48.078;11.876;2022-09-28T03:50:43;0.40;;;0.40;;
23588;SDS011;11972;48.078;11.876;2022-09-28T03:54:43;1.50;;;0.90;;
23588;SDS011;11972;48.078;11.876;2022-09-28T03:58:43;0.85;;;0.70;;
23588;SDS011;11972;48.078;11.876;2022-09-28T04:02:44;0.93;;;0.50;;
23588;SDS011;11972;48.078;11.876;2022-09-28T04:06:44;0.80;;;0.50;;
23588;SDS011;11972;48.078;11.876;2022-09-28T04:10:44;3.22;;;0.60;;
23588;SDS011;11972;48.078;11.876;2022-09-28T04:14:46;0.95;;;0.70;;
23588;SDS011;11972;48.078;11.876;2022-09-28T04:18:46;0.70;;;0.70;;
23588;SDS011;11972;48.078;11.876;2022-09-28T04:22:47;0.98;;;0.70;;
23588;SDS011;11972;48.078;11.876;2022-09-28T04:26:47;1.57;;;1.20;;
23588;SDS011;11972;48.078;11.876;2022-09-28T04:30:48;1.15;;;1.02;;
23588;SDS011;11972;48.078;11.876;2022-09-28T04:34:49;0.85;;;0.80;;
23588;SDS011;11972;48.078;11.876;2022-09-28T04:38:51;1.25;;;0.90;;
23588;SDS011;11972;48.078;11.876;2022-09-28T04:42:55;1.33;;;0.50;;
23588;SDS011;11972;48.078;11.876;2022-09-28T04:46:56;1.13;;;1.00;;
23588;SDS011;11972;48.078;11.876;2022-09-28T04:50:56;3.67;;;0.77;;
23588;SDS011;11972;48.078;11.876;2022-09-28T04:54:58;1.65;;;0.85;;
23588;SDS011;11972;48.078;11.876;2022-09-28T04:58:59;0.70;;;0.70;;
23588;SDS011;11972;48.078;11.876;2022-09-28T05:02:59;1.90;;;0.90;;
23588;SDS011;11972;48.078;11.876;2022-09-28T05:06:59;0.80;;;0.70;;
23588;SDS011;11972;48.078;11.876;2022-09-28T05:11:01;0.80;;;0.80;;
23588;SDS011;11972;48.078;11.876;2022-09-28T05:15:03;1.25;;;0.90;;
23588;SDS011;11972;48.078;11.876;2022-09-28T05:19:04;1.15;;;0.80;;
23588;SDS011;11972;48.078;11.876;2022-09-28T05:23:07;0.82;;;0.82;;
23588;SDS011;11972;48.078;11.876;2022-09-28T05:27:08;0.95;;;0.70;;
23588;SDS011;11972;48.078;11.876;2022-09-28T05:31:09;1.02;;;0.80;;
23588;SDS011;11972;48.078;11.876;2022-09-28T05:35:10;1.00;;;0.90;;
23588;SDS011;11972;48.078;11.876;2022-09-28T05:39:10;2.03;;;0.70;;
23588;SDS011;11972;48.078;11.876;2022-09-28T05:43:10;1.42;;;0.90;;
23588;SDS011;11972;48.078;11.876;2022-09-28T05:47:11;1.60;;;0.90;;
23588;SDS011;11972;48.078;11.876;2022-09-28T05:51:11;1.37;;;0.93;;
23588;SDS011;11972;48.078;11.876;2022-09-28T05:55:11;0.98;;;0.98;;
23588;SDS011;11972;48.078;11.876;2022-09-28T05:59:12;1.10;;;1.00;;
23588;SDS011;11972;48.078;11.876;2022-09-28T06:03:12;1.23;;;1.13;;
23588;SDS011;11972;48.078;11.876;2022-09-28T06:07:13;1.92;;;1.20;;
23588;SDS011;11972;48.078;11.876;2022-09-28T06:11:14;1.17;;;1.00;;
23588;SDS011;11972;48.078;11.876;2022-09-28T06:15:14;1.40;;;1.10;;
23588;SDS011;11972;48.078;11.876;2022-09-28T06:19:14;0.70;;;0.70;;
23588;SDS011;11972;48.078;11.876;2022-09-28T06:23:15;1.23;;;0.70;;
23588;SDS011;11972;48.078;11.876;2022-09-28T06:27:15;3.90;;;0.80;;
23588;SDS011;11972;48.078;11.876;2022-09-28T06:31:15;1.83;;;0.90;;
23588;SDS011;11972;48.078;11.876;2022-09-28T06:35:16;0.98;;;0.70;;
23588;SDS011;11972;48.078;11.876;2022-09-28T06:39:17;2.42;;;1.05;;
23588;SDS011;11972;48.078;11.876;2022-09-28T06:43:17;0.93;;;0.82;;
23588;SDS011;11972;48.078;11.876;2022-09-28T06:47:18;1.08;;;0.50;;
23588;SDS011;11972;48.078;11.876;2022-09-28T06:51:18;0.50;;;0.40;;
23588;SDS011;11972;48.078;11.876;2022-09-28T06:55:19;0.30;;;0.30;;
23588;SDS011;11972;48.078;11.876;2022-09-28T06:59:20;0.50;;;0.20;;
23588;SDS011;11972;48.078;11.876;2022-09-28T07:03:21;0.77;;;0.20;;
23588;SDS011;11972;48.078;11.876;2022-09-28T07:07:22;0.57;;;0.40;;
23588;SDS011;11972;48.078;11.876;2022-09-28T07:11:22;1.40;;;0.20;;
23588;SDS011;11972;48.078;11.876;2022-09-28T07:15:25;1.02;;;0.30;;
23588;SDS011;11972;48.078;11.876;2022-09-28T07:19:26;1.95;;;1.00;;
23588;SDS011;11972;48.078;11.876;2022-09-28T07:23:26;0.60;;;0.40;;
23588;SDS011;11972;48.078;11.876;2022-09-28T07:27:29;1.85;;;0.20;;
23588;SDS011;11972;48.078;11.876;2022-09-28T07:31:29;1.73;;;0.20;;
23588;SDS011;11972;48.078;11.876;2022-09-28T07:35:31;0.65;;;0.30;;
23588;SDS011;11972;48.078;11.876;2022-09-28T07:39:34;0.22;;;0.20;;
23588;SDS011;11972;48.078;11.876;2022-09-28T07:43:54;0.30;;;0.20;;
23588;SDS011;11972;48.078;11.876;2022-09-28T07:47:55;0.47;;;0.20;;
23588;SDS011;11972;48.078;11.876;2022-09-28T07:51:55;0.90;;;0.27;;
23588;SDS011;11972;48.078;11.876;2022-09-28T07:55:56;0.30;;;0.20;;
23588;SDS011;11972;48.078;11.876;2022-09-28T08:00:06;0.17;;;0.17;;
23588;SDS011;11972;48.078;11.876;2022-09-28T08:04:08;0.30;;;0.30;;
23588;SDS011;11972;48.078;11.876;2022-09-28T08:08:08;1.23;;;0.40;;
23588;SDS011;11972;48.078;11.876;2022-09-28T08:12:09;0.30;;;0.20;;
23588;SDS011;11972;48.078;11.876;2022-09-28T08:16:10;1.45;;;1.00;;
23588;SDS011;11972;48.078;11.876;2022-09-28T08:20:11;0.38;;;0.30;;
23588;SDS011;11972;48.078;11.876;2022-09-28T08:24:30;0.30;;;0.20;;
23588;SDS011;11972;48.078;11.876;2022-09-28T08:28:31;1.77;;;0.77;;
23588;SDS011;11972;48.078;11.876;2022-09-28T08:32:31;0.20;;;0.20;;
23588;SDS011;11972;48.078;11.876;2022-09-28T08:36:32;0.17;;;0.17;;
23588;SDS011;11972;48.078;11.876;2022-09-28T08:44:54;1.45;;;0.43;;
23588;SDS011;11972;48.078;11.876;2022-09-28T08:48:59;0.40;;;0.15;;
23588;SDS011;11972;48.078;11.876;2022-09-28T08:53:14;0.65;;;0.20;;
23588;SDS011;11972;48.078;11.876;2022-09-28T08:57:23;0.20;;;0.10;;
23588;SDS011;11972;48.078;11.876;2022-09-28T09:01:31;0.20;;;0.20;;
23588;SDS011;11972;48.078;11.876;2022-09-28T09:10:35;1.77;;;1.48;;
23588;SDS011;11972;48.078;11.876;2022-09-28T09:19:08;1.25;;;0.30;;
23588;SDS011;11972;48.078;11.876;2022-09-28T09:23:12;1.02;;;0.20;;
23588;SDS011;11972;48.078;11.876;2022-09-28T09:31:32;0.20;;;0.20;;
23588;SDS011;11972;48.078;11.876;2022-09-28T09:40:08;1.92;;;0.40;;
23588;SDS011;11972;48.078;11.876;2022-09-28T09:57:45;0.50;;;0.50;;
23588;SDS011;11972;48.078;11.876;2022-09-28T10:02:12;1.00;;;0.40;;
23588;SDS011;11972;48.078;11.876;2022-09-28T10:06:24;2.50;;;0.60;;
23588;SDS011;11972;48.078;11.876;2022-09-28T10:10:28;0.40;;;0.30;;
23588;SDS011;11972;48.078;11.876;2022-09-28T10:14:32;0.25;;;0.25;;
23588;SDS011;11972;48.078;11.876;2022-09-28T10:18:32;0.57;;;0.30;;
23588;SDS011;11972;48.078;11.876;2022-09-28T10:22:33;0.30;;;0.20;;
23588;SDS011;11972;48.078;11.876;2022-09-28T10:26:34;0.30;;;0.20;;
23588;SDS011;11972;48.078;11.876;2022-09-28T10:30:38;0.30;;;0.30;;
23588;SDS011;11972;48.078;11.876;2022-09-28T10:34:43;1.00;;;0.40;;
23588;SDS011;11972;48.078;11.876;2022-09-28T10:38:43;0.90;;;0.30;;
23588;SDS011;11972;48.078;11.876;2022-09-28T10:42:46;0.80;;;0.45;;
23588;SDS011;11972;48.078;11.876;2022-09-28T10:47:03;1.08;;;0.70;;
23588;SDS011;11972;48.078;11.876;2022-09-28T10:51:07;6.10;;;5.68;;
23588;SDS011;11972;48.078;11.876;2022-09-28T10:55:21;0.50;;;0.40;;
23588;SDS011;11972;48.078;11.876;2022-09-28T11:03:28;0.75;;;0.40;;
23588;SDS011;11972;48.078;11.876;2022-09-28T11:07:33;1.25;;;0.90;;
23588;SDS011;11972;48.078;11.876;2022-09-28T11:11:44;2.30;;;2.10;;
23588;SDS011;11972;48.078;11.876;2022-09-28T11:15:45;1.80;;;0.88;;
23588;SDS011;11972;48.078;11.876;2022-09-28T11:19:45;0.60;;;0.60;;
23588;SDS011;11972;48.078;11.876;2022-09-28T11:24:46;0.65;;;0.50;;
23588;SDS011;11972;48.078;11.876;2022-09-28T11:28:23;0.63;;;0.40;;
23588;SDS011;11972;48.078;11.876;2022-09-28T11:32:37;1.65;;;0.32;;
23588;SDS011;11972;48.078;11.876;2022-09-28T11:36:52;1.48;;;0.40;;
23588;SDS011;11972;48.078;11.876;2022-09-28T11:49:40;2.60;;;0.52;;
23588;SDS011;11972;48.078;11.876;2022-09-28T11:53:49;1.35;;;0.43;;
23588;SDS011;11972;48.078;11.876;2022-09-28T11:58:02;1.65;;;0.40;;
23588;SDS011;11972;48.078;11.876;2022-09-28T12:02:29;0.73;;;0.45;;
23588;SDS011;11972;48.078;11.876;2022-09-28T12:06:48;3.42;;;0.70;;
23588;SDS011;11972;48.078;11.876;2022-09-28T12:11:10;1.58;;;0.52;;
23588;SDS011;11972;48.078;11.876;2022-09-28T12:15:17;0.88;;;0.40;;
23588;SDS011;11972;48.078;11.876;2022-09-28T12:19:23;0.95;;;0.60;;
23588;SDS011;11972;48.078;11.876;2022-09-28T12:23:37;0.57;;;0.50;;
23588;SDS011;11972;48.078;11.876;2022-09-28T12:27:44;2.17;;;0.60;;
23588;SDS011;11972;48.078;11.876;2022-09-28T12:32:04;1.40;;;0.63;;
23588;SDS011;11972;48.078;11.876;2022-09-28T12:36:14;1.40;;;0.80;;
23588;SDS011;11972;48.078;11.876;2022-09-28T12:53:26;2.15;;;0.70;;
23588;SDS011;11972;48.078;11.876;2022-09-28T12:57:47;1.77;;;0.73;;
23588;SDS011;11972;48.078;11.876;2022-09-28T13:02:19;3.03;;;0.70;;
23588;SDS011;11972;48.078;11.876;2022-09-28T13:19:51;2.17;;;1.00;;
23588;SDS011;11972;48.078;11.876;2022-09-28T13:23:58;1.10;;;0.60;;
23588;SDS011;11972;48.078;11.876;2022-09-28T13:28:03;0.82;;;0.60;;
23588;SDS011;11972;48.078;11.876;2022-09-28T13:32:04;1.25;;;0.70;;
23588;SDS011;11972;48.078;11.876;2022-09-28T13:40:40;1.20;;;0.70;;
23588;SDS011;11972;48.078;11.876;2022-09-28T13:49:23;1.60;;;1.00;;
23588;SDS011;11972;48.078;11.876;2022-09-28T13:58:02;2.03;;;0.80;;
23588;SDS011;11972;48.078;11.876;2022-09-28T14:06:42;1.17;;;0.90;;
23588;SDS011;11972;48.078;11.876;2022-09-28T14:10:49;2.95;;;1.35;;
23588;SDS011;11972;48.078;11.876;2022-09-28T14:14:51;1.38;;;1.20;;
23588;SDS011;11972;48.078;11.876;2022-09-28T14:19:02;2.45;;;1.50;;
23588;SDS011;11972;48.078;11.876;2022-09-28T14:23:30;2.33;;;2.10;;
23588;SDS011;11972;48.078;11.876;2022-09-28T14:36:21;7.18;;;3.08;;
23588;SDS011;11972;48.078;11.876;2022-09-28T14:41:01;2.08;;;1.58;;
23588;SDS011;11972;48.078;11.876;2022-09-28T14:53:21;4.20;;;2.63;;
23588;SDS011;11972;48.078;11.876;2022-09-28T14:57:24;2.40;;;1.65;;
23588;SDS011;11972;48.078;11.876;2022-09-28T15:01:29;2.03;;;1.20;;
23588;SDS011;11972;48.078;11.876;2022-09-28T15:05:34;2.75;;;1.75;;
23588;SDS011;11972;48.078;11.876;2022-09-28T15:09:40;4.22;;;2.22;;
23588;SDS011;11972;48.078;11.876;2022-09-28T15:13:41;2.70;;;1.00;;
23588;SDS011;11972;48.078;11.876;2022-09-28T15:17:44;2.00;;;1.73;;
23588;SDS011;11972;48.078;11.876;2022-09-28T15:21:51;3.58;;;1.63;;
23588;SDS011;11972;48.078;11.876;2022-09-28T15:25:52;3.47;;;2.85;;
23588;SDS011;11972;48.078;11.876;2022-09-28T15:29:55;4.97;;;2.50;;
23588;SDS011;11972;48.078;11.876;2022-09-28T15:33:59;4.00;;;2.22;;
23588;SDS011;11972;48.078;11.876;2022-09-28T15:38:17;3.17;;;2.05;;
23588;SDS011;11972;48.078;11.876;2022-09-28T15:42:18;2.58;;;2.10;;
23588;SDS011;11972;48.078;11.876;2022-09-28T15:46:19;2.80;;;1.90;;
23588;SDS011;11972;48.078;11.876;2022-09-28T15:50:21;3.20;;;1.40;;
23588;SDS011;11972;48.078;11.876;2022-09-28T15:54:36;1.63;;;1.30;;
23588;SDS011;11972;48.078;11.876;2022-09-28T15:58:43;4.07;;;1.50;;
23588;SDS011;11972;48.078;11.876;2022-09-28T16:03:27;3.63;;;1.55;;
23588;SDS011;11972;48.078;11.876;2022-09-28T16:11:38;5.97;;;2.40;;
23588;SDS011;11972;48.078;11.876;2022-09-28T16:15:40;4.32;;;2.45;;
23588;SDS011;11972;48.078;11.876;2022-09-28T16:19:40;2.22;;;1.23;;
23588;SDS011;11972;48.078;11.876;2022-09-28T16:23:41;1.67;;;1.35;;
23588;SDS011;11972;48.078;11.876;2022-09-28T16:27:49;1.73;;;1.23;;
23588;SDS011;11972;48.078;11.876;2022-09-28T16:31:51;2.22;;;1.40;;
23588;SDS011;11972;48.078;11.876;2022-09-28T16:35:52;2.75;;;1.20;;
23588;SDS011;11972;48.078;11.876;2022-09-28T16:39:54;2.88;;;1.17;;
23588;SDS011;11972;48.078;11.876;2022-09-28T16:43:58;2.97;;;1.33;;
23588;SDS011;11972;48.078;11.876;2022-09-28T16:48:01;2.63;;;1.65;;
23588;SDS011;11972;48.078;11.876;2022-09-28T16:52:01;3.88;;;1.45;;
23588;SDS011;11972;48.078;11.876;2022-09-28T16:56:02;1.77;;;1.17;;
23588;SDS011;11972;48.078;11.876;2022-09-28T17:00:03;3.03;;;1.88;;
23588;SDS011;11972;48.078;11.876;2022-09-28T17:04:04;2.75;;;1.58;;
23588;SDS011;11972;48.078;11.876;2022-09-28T17:08:05;2.55;;;1.55;;
23588;SDS011;11972;48.078;11.876;2022-09-28T17:12:16;2.03;;;1.60;;
23588;SDS011;11972;48.078;11.876;2022-09-28T17:16:19;2.10;;;1.83;;
23588;SDS011;11972;48.078;11.876;2022-09-28T17:20:22;2.28;;;1.48;;
23588;SDS011;11972;48.078;11.876;2022-09-28T17:24:26;2.15;;;1.67;;
23588;SDS011;11972;48.078;11.876;2022-09-28T17:28:27;2.63;;;1.53;;
23588;SDS011;11972;48.078;11.876;2022-09-28T17:32:30;2.35;;;1.90;;
23588;SDS011;11972;48.078;11.876;2022-09-28T17:36:31;5.18;;;1.98;;
23588;SDS011;11972;48.078;11.876;2022-09-28T17:40:31;3.65;;;2.35;;
23588;SDS011;11972;48.078;11.876;2022-09-28T17:44:32;2.40;;;2.03;;
23588;SDS011;11972;48.078;11.876;2022-09-28T17:48:32;2.97;;;2.40;;
23588;SDS011;11972;48.078;11.876;2022-09-28T17:52:33;2.80;;;1.80;;
23588;SDS011;11972;48.078;11.876;2022-09-28T17:56:34;2.65;;;1.70;;
23588;SDS011;11972;48.078;11.876;2022-09-28T18:00:35;1.50;;;1.13;;
23588;SDS011;11972;48.078;11.876;2022-09-28T18:04:36;2.35;;;1.30;;
23588;SDS011;11972;48.078;11.876;2022-09-28T18:08:36;2.40;;;1.00;;
23588;SDS011;11972;48.078;11.876;2022-09-28T18:12:36;1.88;;;0.98;;
23588;SDS011;11972;48.078;11.876;2022-09-28T18:16:36;1.60;;;0.80;;
23588;SDS011;11972;48.078;11.876;2022-09-28T18:20:37;3.85;;;1.33;;
23588;SDS011;11972;48.078;11.876;2022-09-28T18:24:38;1.92;;;1.20;;
23588;SDS011;11972;48.078;11.876;2022-09-28T18:28:38;3.20;;;1.00;;
23588;SDS011;11972;48.078;11.876;2022-09-28T18:32:39;1.85;;;1.13;;
23588;SDS011;11972;48.078;11.876;2022-09-28T18:36:39;1.15;;;1.00;;
23588;SDS011;11972;48.078;11.876;2022-09-28T18:40:39;2.83;;;1.37;;
23588;SDS011;11972;48.078;11.876;2022-09-28T18:44:40;1.40;;;1.30;;
23588;SDS011;11972;48.078;11.876;2022-09-28T18:48:40;2.08;;;1.60;;
23588;SDS011;11972;48.078;11.876;2022-09-28T18:52:42;5.22;;;2.15;;
23588;SDS011;11972;48.078;11.876;2022-09-28T18:56:43;4.15;;;2.08;;
23588;SDS011;11972;48.078;11.876;2022-09-28T19:00:44;3.10;;;1.98;;
23588;SDS011;11972;48.078;11.876;2022-09-28T19:04:44;2.38;;;1.42;;
23588;SDS011;11972;48.078;11.876;2022-09-28T19:08:51;2.63;;;1.52;;
23588;SDS011;11972;48.078;11.876;2022-09-28T19:12:52;1.88;;;1.00;;
23588;SDS011;11972;48.078;11.876;2022-09-28T19:16:52;3.45;;;1.33;;
23588;SDS011;11972;48.078;11.876;2022-09-28T19:20:52;1.52;;;1.10;;
23588;SDS011;11972;48.078;11.876;2022-09-28T19:24:53;2.10;;;1.38;;
23588;SDS011;11972;48.078;11.876;2022-09-28T19:28:54;2.13;;;1.10;;
23588;SDS011;11972;48.078;11.876;2022-09-28T19:32:55;2.67;;;1.00;;
23588;SDS011;11972;48.078;11.876;2022-09-28T19:36:56;4.88;;;1.20;;
23588;SDS011;11972;48.078;11.876;2022-09-28T19:40:56;4.32;;;0.95;;
23588;SDS011;11972;48.078;11.876;2022-09-28T19:44:57;1.33;;;1.13;;
23588;SDS011;11972;48.078;11.876;2022-09-28T19:49:01;3.13;;;1.10;;
23588;SDS011;11972;48.078;11.876;2022-09-28T19:53:06;1.35;;;1.10;;
23588;SDS011;11972;48.078;11.876;2022-09-28T19:57:06;1.48;;;1.35;;
23588;SDS011;11972;48.078;11.876;2022-09-28T20:01:07;1.13;;;1.00;;
23588;SDS011;11972;48.078;11.876;2022-09-28T20:05:07;2.40;;;1.20;;
23588;SDS011;11972;48.078;11.876;2022-09-28T20:09:08;2.25;;;0.80;;
23588;SDS011;11972;48.078;11.876;2022-09-28T20:13:08;1.00;;;0.70;;
23588;SDS011;11972;48.078;11.876;2022-09-28T20:17:08;1.13;;;0.70;;
23588;SDS011;11972;48.078;11.876;2022-09-28T20:21:10;1.50;;;0.70;;
23588;SDS011;11972;48.078;11.876;2022-09-28T20:25:13;1.02;;;0.70;;
23588;SDS011;11972;48.078;11.876;2022-09-28T20:29:14;1.05;;;0.50;;
23588;SDS011;11972;48.078;11.876;2022-09-28T20:33:14;1.13;;;0.70;;
23588;SDS011;11972;48.078;11.876;2022-09-28T20:37:14;1.40;;;0.50;;
23588;SDS011;11972;48.078;11.876;2022-09-28T20:41:17;1.80;;;0.43;;
23588;SDS011;11972;48.078;11.876;2022-09-28T20:45:19;1.48;;;0.50;;
23588;SDS011;11972;48.078;11.876;2022-09-28T20:49:19;1.67;;;0.50;;
23588;SDS011;11972;48.078;11.876;2022-09-28T20:53:19;0.63;;;0.32;;
23588;SDS011;11972;48.078;11.876;2022-09-28T20:57:19;0.93;;;0.40;;
23588;SDS011;11972;48.078;11.876;2022-09-28T21:05:21;1.67;;;0.30;;
23588;SDS011;11972;48.078;11.876;2022-09-28T21:09:22;1.13;;;0.40;;
23588;SDS011;11972;48.078;11.876;2022-09-28T21:13:22;0.43;;;0.43;;
23588;SDS011;11972;48.078;11.876;2022-09-28T21:17:23;1.63;;;0.47;;
23588;SDS011;11972;48.078;11.876;2022-09-28T21:21:24;0.60;;;0.50;;
23588;SDS011;11972;48.078;11.876;2022-09-28T21:25:25;0.40;;;0.32;;
23588;SDS011;11972;48.078;11.876;2022-09-28T21:29:25;1.60;;;0.30;;
23588;SDS011;11972;48.078;11.876;2022-09-28T21:33:26;0.30;;;0.30;;
23588;SDS011;11972;48.078;11.876;2022-09-28T21:37:26;1.75;;;0.40;;
23588;SDS011;11972;48.078;11.876;2022-09-28T21:41:27;0.70;;;0.40;;
23588;SDS011;11972;48.078;11.876;2022-09-28T21:45:28;0.30;;;0.30;;
23588;SDS011;11972;48.078;11.876;2022-09-28T21:49:28;1.70;;;0.40;;
23588;SDS011;11972;48.078;11.876;2022-09-28T21:53:29;1.17;;;0.40;;
23588;SDS011;11972;48.078;11.876;2022-09-28T21:57:31;1.20;;;0.40;;
23588;SDS011;11972;48.078;11.876;2022-09-28T22:01:32;0.65;;;0.45;;
23588;SDS011;11972;48.078;11.876;2022-09-28T22:05:32;1.48;;;0.63;;
23588;SDS011;11972;48.078;11.876;2022-09-28T22:09:32;0.75;;;0.52;;
23588;SDS011;11972;48.078;11.876;2022-09-28T22:13:36;0.82;;;0.70;;
23588;SDS011;11972;48.078;11.876;2022-09-28T22:17:39;1.65;;;0.50;;
23588;SDS011;11972;48.078;11.876;2022-09-28T22:21:39;0.63;;;0.50;;
23588;SDS011;11972;48.078;11.876;2022-09-28T22:25:40;0.75;;;0.43;;
23588;SDS011;11972;48.078;11.876;2022-09-28T22:29:41;1.20;;;0.60;;
23588;SDS011;11972;48.078;11.876;2022-09-28T22:33:41;0.73;;;0.40;;
23588;SDS011;11972;48.078;11.876;2022-09-28T22:37:42;1.85;;;0.32;;
23588;SDS011;11972;48.078;11.876;2022-09-28T22:41:42;0.50;;;0.40;;
23588;SDS011;11972;48.078;11.876;2022-09-28T22:45:43;0.30;;;0.30;;
23588;SDS011;11972;48.078;11.876;2022-09-28T22:49:44;0.35;;;0.30;;
23588;SDS011;11972;48.078;11.876;2022-09-28T22:53:44;0.35;;;0.30;;
23588;SDS011;11972;48.078;11.876;2022-09-28T22:57:45;0.80;;;0.47;;
23588;SDS011;11972;48.078;11.876;2022-09-28T23:01:45;0.60;;;0.50;;
23588;SDS011;11972;48.078;11.876;2022-09-28T23:05:52;2.35;;;0.57;;
23588;SDS011;11972;48.078;11.876;2022-09-28T23:09:53;0.45;;;0.45;;
23588;SDS011;11972;48.078;11.876;2022-09-28T23:13:57;0.65;;;0.45;;
23588;SDS011;11972;48.078;11.876;2022-09-28T23:17:58;0.93;;;0.60;;
23588;SDS011;11972;48.078;11.876;2022-09-28T23:21:59;0.77;;;0.60;;
23588;SDS011;11972;48.078;11.876;2022-09-28T23:25:59;2.00;;;0.70;;
23588;SDS011;11972;48.078;11.876;2022-09-28T23:34:08;0.55;;;0.55;;
23588;SDS011;11972;48.078;11.876;2022-09-28T23:38:10;1.23;;;0.60;;
23588;SDS011;11972;48.078;11.876;2022-09-28T23:42:12;1.92;;;0.52;;
23588;SDS011;11972;48.078;11.876;2022-09-28T23:46:12;0.80;;;0.70;;
23588;SDS011;11972;48.078;11.876;2022-09-28T23:50:13;0.77;;;0.70;;
23588;SDS011;11972;48.078;11.876;2022-09-28T23:54:13;2.15;;;0.75;;
23588;SDS011;11972;48.078;11.876;2022-09-28T23:58:13;0.93;;;0.88;;
